THY07 LTAN-LCLK
Flight info
| Callsign | THY07 |
|---|---|
| Flight time | 0h 45m |
| Altitude | 26000 |
| Route | SEHI1A SEHIR BONEK BONE1R |
| Aircraft | B738/M-LTFE/L |
Departure
| Time | 2026-04-24 09:12 |
|---|---|
| Airport | Konya Airport (LTAN) |
Arrival
| Time | 2026-04-24 09:57 |
|---|---|
| Airport | Larnaca International Airport (LCLK) |
| Time | Latitude | Longitude | Altitude | Speed | Heading |
|---|---|---|---|---|---|
| 2026-04-24 09:12 | 38.07073 | 32.60416 | 8131 ft | 258 kts | 21° |
| 2026-04-24 09:12 | 38.08601 | 32.61625 | 9011 ft | 265 kts | 46° |
| 2026-04-24 09:12 | 38.09513 | 32.63673 | 9802 ft | 274 kts | 77° |
| 2026-04-24 09:12 | 38.09540 | 32.66060 | 10497 ft | 276 kts | 108° |
| 2026-04-24 09:13 | 38.08676 | 32.68189 | 11276 ft | 271 kts | 138° |
| 2026-04-24 09:13 | 38.07154 | 32.69478 | 12006 ft | 261 kts | 169° |
| 2026-04-24 09:13 | 38.05390 | 32.69634 | 12780 ft | 251 kts | 198° |
| 2026-04-24 09:13 | 38.03832 | 32.68761 | 13580 ft | 243 kts | 223° |
| 2026-04-24 09:14 | 38.02701 | 32.67214 | 14394 ft | 237 kts | 242° |
| 2026-04-24 09:14 | 38.02039 | 32.65318 | 15209 ft | 235 kts | 252° |
| 2026-04-24 09:14 | 38.01517 | 32.63361 | 16031 ft | 235 kts | 253° |
| 2026-04-24 09:14 | 38.01001 | 32.61392 | 16851 ft | 235 kts | 253° |
| 2026-04-24 09:15 | 38.00440 | 32.59444 | 17609 ft | 241 kts | 245° |
| 2026-04-24 09:15 | 37.99305 | 32.57732 | 17852 ft | 270 kts | 228° |
| 2026-04-24 09:15 | 37.97860 | 32.56111 | 18043 ft | 293 kts | 227° |
| 2026-04-24 09:15 | 37.96256 | 32.54360 | 18213 ft | 315 kts | 226° |
| 2026-04-24 09:16 | 37.94536 | 32.52489 | 18365 ft | 336 kts | 226° |
| 2026-04-24 09:16 | 37.92711 | 32.50503 | 18508 ft | 355 kts | 225° |
| 2026-04-24 09:16 | 37.90815 | 32.48436 | 18909 ft | 363 kts | 225° |
| 2026-04-24 09:16 | 37.88893 | 32.46340 | 19549 ft | 365 kts | 225° |
| 2026-04-24 09:17 | 37.86967 | 32.44236 | 20225 ft | 366 kts | 225° |
| 2026-04-24 09:17 | 37.85033 | 32.42117 | 20819 ft | 368 kts | 225° |
| 2026-04-24 09:17 | 37.83091 | 32.39987 | 21393 ft | 371 kts | 225° |
| 2026-04-24 09:17 | 37.81796 | 32.38565 | 21760 ft | 373 kts | 225° |
| 2026-04-24 09:18 | 37.79827 | 32.36404 | 22305 ft | 376 kts | 225° |
| 2026-04-24 09:18 | 37.77191 | 32.33514 | 23040 ft | 380 kts | 225° |
| 2026-04-24 09:18 | 37.75185 | 32.31316 | 23588 ft | 382 kts | 225° |
| 2026-04-24 09:18 | 37.73826 | 32.29828 | 23894 ft | 383 kts | 225° |
| 2026-04-24 09:19 | 37.71827 | 32.27641 | 24360 ft | 385 kts | 225° |
| 2026-04-24 09:19 | 37.69796 | 32.25420 | 24808 ft | 387 kts | 225° |
| 2026-04-24 09:19 | 37.67645 | 32.23341 | 25220 ft | 396 kts | 214° |
| 2026-04-24 09:19 | 37.65049 | 32.22052 | 25653 ft | 409 kts | 200° |
| 2026-04-24 09:20 | 37.62196 | 32.21522 | 25939 ft | 422 kts | 188° |
| 2026-04-24 09:20 | 37.58261 | 32.22233 | 25975 ft | 437 kts | 175° |
| 2026-04-24 09:20 | 37.56252 | 32.22810 | 25964 ft | 439 kts | 174° |
| 2026-04-24 09:20 | 37.53322 | 32.23705 | 25962 ft | 438 kts | 174° |
| 2026-04-24 09:21 | 37.50367 | 32.24626 | 25952 ft | 437 kts | 174° |
| 2026-04-24 09:21 | 37.47417 | 32.25538 | 25950 ft | 436 kts | 174° |
| 2026-04-24 09:21 | 37.44470 | 32.26434 | 25944 ft | 435 kts | 174° |
| 2026-04-24 09:21 | 37.41522 | 32.27314 | 25944 ft | 435 kts | 174° |
| 2026-04-24 09:22 | 37.38562 | 32.28186 | 25958 ft | 435 kts | 174° |
| 2026-04-24 09:22 | 37.35607 | 32.29049 | 25945 ft | 436 kts | 174° |
| 2026-04-24 09:22 | 37.32651 | 32.29909 | 25942 ft | 437 kts | 174° |
| 2026-04-24 09:22 | 37.29686 | 32.30770 | 25947 ft | 437 kts | 174° |
| 2026-04-24 09:23 | 37.26720 | 32.31629 | 25941 ft | 438 kts | 174° |
| 2026-04-24 09:23 | 37.23782 | 32.32481 | 25940 ft | 438 kts | 174° |
| 2026-04-24 09:23 | 37.20811 | 32.33342 | 25941 ft | 438 kts | 174° |
| 2026-04-24 09:23 | 37.17834 | 32.34203 | 25945 ft | 438 kts | 174° |
| 2026-04-24 09:24 | 37.14859 | 32.35064 | 25936 ft | 439 kts | 174° |
| 2026-04-24 09:24 | 37.11884 | 32.35925 | 25933 ft | 438 kts | 174° |
| 2026-04-24 09:24 | 37.08916 | 32.36784 | 25932 ft | 437 kts | 174° |
| 2026-04-24 09:24 | 37.05953 | 32.37640 | 25925 ft | 436 kts | 174° |
| 2026-04-24 09:25 | 37.02999 | 32.38494 | 25934 ft | 435 kts | 174° |
| 2026-04-24 09:25 | 37.00076 | 32.39336 | 25934 ft | 435 kts | 174° |
| 2026-04-24 09:25 | 36.97114 | 32.40189 | 25927 ft | 435 kts | 174° |
| 2026-04-24 09:25 | 36.94163 | 32.41038 | 25929 ft | 435 kts | 174° |
| 2026-04-24 09:26 | 36.91208 | 32.41887 | 25946 ft | 435 kts | 174° |
| 2026-04-24 09:26 | 36.88249 | 32.42736 | 25936 ft | 436 kts | 174° |
| 2026-04-24 09:26 | 36.85285 | 32.43587 | 25933 ft | 437 kts | 174° |
| 2026-04-24 09:26 | 36.82322 | 32.44436 | 25946 ft | 438 kts | 174° |
| 2026-04-24 09:27 | 36.79379 | 32.45279 | 25934 ft | 439 kts | 174° |
| 2026-04-24 09:27 | 36.76398 | 32.46133 | 25942 ft | 439 kts | 174° |
| 2026-04-24 09:27 | 36.73416 | 32.46986 | 25935 ft | 440 kts | 174° |
| 2026-04-24 09:27 | 36.70430 | 32.47841 | 25910 ft | 439 kts | 174° |
| 2026-04-24 09:28 | 36.67457 | 32.48693 | 25956 ft | 437 kts | 174° |
| 2026-04-24 09:28 | 36.64484 | 32.49542 | 25941 ft | 437 kts | 174° |
| 2026-04-24 09:28 | 36.61521 | 32.50388 | 25956 ft | 437 kts | 174° |
| 2026-04-24 09:28 | 36.58594 | 32.51222 | 25945 ft | 438 kts | 174° |
| 2026-04-24 09:29 | 36.55627 | 32.52066 | 25946 ft | 437 kts | 174° |
| 2026-04-24 09:29 | 36.52659 | 32.52911 | 25961 ft | 437 kts | 174° |
| 2026-04-24 09:29 | 36.49689 | 32.53756 | 25957 ft | 437 kts | 174° |
| 2026-04-24 09:29 | 36.46718 | 32.54600 | 25955 ft | 438 kts | 174° |
| 2026-04-24 09:30 | 36.43740 | 32.55445 | 25962 ft | 439 kts | 174° |
| 2026-04-24 09:30 | 36.39794 | 32.56564 | 25955 ft | 439 kts | 174° |
| 2026-04-24 09:30 | 36.37783 | 32.57134 | 25955 ft | 439 kts | 174° |
| 2026-04-24 09:30 | 36.34792 | 32.57982 | 25962 ft | 439 kts | 174° |
| 2026-04-24 09:31 | 36.31849 | 32.58815 | 25958 ft | 441 kts | 174° |
| 2026-04-24 09:31 | 36.28860 | 32.59661 | 25956 ft | 441 kts | 174° |
| 2026-04-24 09:31 | 36.25872 | 32.60506 | 25950 ft | 440 kts | 174° |
| 2026-04-24 09:31 | 36.22888 | 32.61349 | 25949 ft | 439 kts | 174° |
| 2026-04-24 09:32 | 36.19915 | 32.62189 | 25949 ft | 438 kts | 174° |
| 2026-04-24 09:32 | 36.16946 | 32.63027 | 25950 ft | 437 kts | 174° |
| 2026-04-24 09:32 | 36.13981 | 32.63862 | 25956 ft | 436 kts | 174° |
| 2026-04-24 09:32 | 36.11025 | 32.64694 | 25957 ft | 435 kts | 174° |
| 2026-04-24 09:33 | 36.08077 | 32.65524 | 25967 ft | 434 kts | 174° |
| 2026-04-24 09:33 | 36.05158 | 32.66344 | 25955 ft | 435 kts | 174° |
| 2026-04-24 09:33 | 36.02192 | 32.67176 | 25955 ft | 436 kts | 174° |
| 2026-04-24 09:33 | 35.99228 | 32.68007 | 25963 ft | 436 kts | 174° |
| 2026-04-24 09:34 | 35.96262 | 32.68838 | 25961 ft | 436 kts | 174° |
| 2026-04-24 09:34 | 35.93300 | 32.69668 | 25957 ft | 437 kts | 174° |
| 2026-04-24 09:34 | 35.90334 | 32.70498 | 25962 ft | 437 kts | 174° |
| 2026-04-24 09:34 | 35.87361 | 32.71330 | 25960 ft | 438 kts | 174° |
| 2026-04-24 09:35 | 35.84425 | 32.72151 | 25960 ft | 438 kts | 174° |
| 2026-04-24 09:35 | 35.81446 | 32.72983 | 25961 ft | 438 kts | 174° |
| 2026-04-24 09:35 | 35.78471 | 32.73813 | 25959 ft | 438 kts | 174° |
| 2026-04-24 09:35 | 35.75491 | 32.74643 | 25777 ft | 439 kts | 174° |
| 2026-04-24 09:36 | 35.72523 | 32.75471 | 25525 ft | 435 kts | 174° |
| 2026-04-24 09:36 | 35.69579 | 32.76293 | 25278 ft | 433 kts | 174° |
| 2026-04-24 09:36 | 35.66645 | 32.77110 | 25038 ft | 432 kts | 174° |
| 2026-04-24 09:36 | 35.63707 | 32.77927 | 24796 ft | 432 kts | 174° |
| 2026-04-24 09:37 | 35.60775 | 32.78741 | 24556 ft | 431 kts | 174° |
| 2026-04-24 09:37 | 35.57842 | 32.79554 | 24192 ft | 433 kts | 174° |
| 2026-04-24 09:37 | 35.54909 | 32.80368 | 23793 ft | 429 kts | 174° |
| 2026-04-24 09:37 | 35.52058 | 32.81162 | 23377 ft | 422 kts | 174° |
| 2026-04-24 09:38 | 35.49207 | 32.81955 | 22913 ft | 419 kts | 174° |
| 2026-04-24 09:38 | 35.46370 | 32.82741 | 22449 ft | 416 kts | 173° |
| 2026-04-24 09:38 | 35.43547 | 32.83521 | 22007 ft | 414 kts | 173° |
| 2026-04-24 09:38 | 35.40740 | 32.84297 | 21563 ft | 412 kts | 173° |
| 2026-04-24 09:39 | 35.37948 | 32.85067 | 21123 ft | 410 kts | 173° |
| 2026-04-24 09:39 | 35.35169 | 32.85834 | 20690 ft | 408 kts | 173° |
| 2026-04-24 09:39 | 35.32402 | 32.86597 | 20137 ft | 407 kts | 173° |
| 2026-04-24 09:39 | 35.29682 | 32.87346 | 19461 ft | 406 kts | 173° |
| 2026-04-24 09:40 | 35.26935 | 32.88103 | 18791 ft | 403 kts | 172° |
| 2026-04-24 09:40 | 35.24201 | 32.88857 | 18126 ft | 401 kts | 172° |
| 2026-04-24 09:40 | 35.21486 | 32.89604 | 17382 ft | 399 kts | 172° |
| 2026-04-24 09:40 | 35.18787 | 32.90347 | 16651 ft | 396 kts | 172° |
| 2026-04-24 09:41 | 35.16103 | 32.91085 | 15950 ft | 395 kts | 172° |
| 2026-04-24 09:41 | 35.13430 | 32.91819 | 15493 ft | 387 kts | 172° |
| 2026-04-24 09:41 | 35.10845 | 32.92559 | 15134 ft | 379 kts | 168° |
| 2026-04-24 09:41 | 35.08496 | 32.93984 | 14492 ft | 389 kts | 146° |
| 2026-04-24 09:42 | 35.06626 | 32.96403 | 13878 ft | 396 kts | 126° |
| 2026-04-24 09:42 | 35.05461 | 32.99466 | 13202 ft | 399 kts | 111° |
| 2026-04-24 09:42 | 35.04572 | 33.02678 | 12501 ft | 399 kts | 110° |
| 2026-04-24 09:42 | 35.03703 | 33.05892 | 11826 ft | 398 kts | 110° |
| 2026-04-24 09:43 | 35.02817 | 33.09090 | 11151 ft | 396 kts | 110° |
| 2026-04-24 09:43 | 35.01913 | 33.12259 | 10497 ft | 395 kts | 110° |
| 2026-04-24 09:43 | 35.01002 | 33.15416 | 10040 ft | 389 kts | 110° |
| 2026-04-24 09:43 | 35.00116 | 33.18478 | 9800 ft | 376 kts | 110° |
| 2026-04-24 09:44 | 34.99270 | 33.21403 | 9530 ft | 366 kts | 110° |
| 2026-04-24 09:44 | 34.98436 | 33.24287 | 9265 ft | 355 kts | 110° |
| 2026-04-24 09:44 | 34.97624 | 33.27094 | 9000 ft | 346 kts | 110° |
| 2026-04-24 09:44 | 34.96831 | 33.29832 | 8740 ft | 338 kts | 110° |
| 2026-04-24 09:45 | 34.96056 | 33.32504 | 8478 ft | 331 kts | 110° |
| 2026-04-24 09:45 | 34.95294 | 33.35122 | 8228 ft | 324 kts | 110° |
| 2026-04-24 09:45 | 34.94549 | 33.37687 | 7974 ft | 318 kts | 110° |
| 2026-04-24 09:45 | 34.93815 | 33.40206 | 7722 ft | 313 kts | 110° |
| 2026-04-24 09:46 | 34.93091 | 33.42686 | 7473 ft | 308 kts | 110° |
| 2026-04-24 09:46 | 34.92377 | 33.45135 | 7235 ft | 304 kts | 110° |
| 2026-04-24 09:46 | 34.91680 | 33.47542 | 7001 ft | 299 kts | 108° |
| 2026-04-24 09:46 | 34.91529 | 33.50034 | 6723 ft | 295 kts | 77° |
| 2026-04-24 09:47 | 34.92378 | 33.52253 | 6515 ft | 287 kts | 53° |
| 2026-04-24 09:47 | 34.93528 | 33.54221 | 6274 ft | 283 kts | 52° |
| 2026-04-24 09:47 | 34.94664 | 33.56132 | 6024 ft | 280 kts | 52° |
| 2026-04-24 09:47 | 34.95797 | 33.58027 | 5918 ft | 271 kts | 52° |
| 2026-04-24 09:48 | 34.96778 | 33.59937 | 5834 ft | 261 kts | 71° |
| 2026-04-24 09:48 | 34.97172 | 33.62023 | 5742 ft | 245 kts | 68° |
| 2026-04-24 09:48 | 34.98056 | 33.63718 | 5659 ft | 229 kts | 52° |
| 2026-04-24 09:48 | 34.98978 | 33.65244 | 5552 ft | 218 kts | 52° |
| 2026-04-24 09:49 | 34.99684 | 33.66838 | 5368 ft | 212 kts | 66° |
| 2026-04-24 09:49 | 35.00267 | 33.68477 | 5133 ft | 209 kts | 66° |
| 2026-04-24 09:49 | 35.00606 | 33.70191 | 4845 ft | 209 kts | 83° |
| 2026-04-24 09:49 | 35.00604 | 33.71943 | 4598 ft | 206 kts | 95° |
| 2026-04-24 09:50 | 35.00318 | 33.73610 | 4327 ft | 204 kts | 113° |
| 2026-04-24 09:50 | 34.99751 | 33.75225 | 3796 ft | 215 kts | 113° |
| 2026-04-24 09:50 | 34.99073 | 33.76936 | 3144 ft | 230 kts | 123° |
| 2026-04-24 09:50 | 34.98110 | 33.78565 | 2490 ft | 243 kts | 133° |
| 2026-04-24 09:51 | 34.96735 | 33.79824 | 1797 ft | 252 kts | 148° |
| 2026-04-24 09:51 | 34.95244 | 33.80934 | 1272 ft | 253 kts | 153° |
| 2026-04-24 09:51 | 34.93654 | 33.81703 | 1085 ft | 239 kts | 164° |
| 2026-04-24 09:51 | 34.92106 | 33.82244 | 979 ft | 223 kts | 165° |
| 2026-04-24 09:52 | 34.90654 | 33.82653 | 950 ft | 205 kts | 180° |
| 2026-04-24 09:52 | 34.89422 | 33.82083 | 960 ft | 188 kts | 227° |
| 2026-04-24 09:52 | 34.88857 | 33.80671 | 988 ft | 186 kts | 253° |
| 2026-04-24 09:52 | 34.88675 | 33.79115 | 964 ft | 187 kts | 274° |
| 2026-04-24 09:53 | 34.89009 | 33.77604 | 980 ft | 183 kts | 295° |
| 2026-04-24 09:53 | 34.89727 | 33.76383 | 980 ft | 173 kts | 308° |
| 2026-04-24 09:53 | 34.90510 | 33.75283 | 967 ft | 170 kts | 310° |
| 2026-04-24 09:53 | 34.91283 | 33.74207 | 982 ft | 169 kts | 310° |
| 2026-04-24 09:54 | 34.92062 | 33.73122 | 967 ft | 169 kts | 310° |
| 2026-04-24 09:54 | 34.92834 | 33.72037 | 982 ft | 170 kts | 308° |
| 2026-04-24 09:54 | 34.93186 | 33.70776 | 971 ft | 152 kts | 258° |
| 2026-04-24 09:54 | 34.92812 | 33.69647 | 968 ft | 140 kts | 247° |
| 2026-04-24 09:55 | 34.92338 | 33.68649 | 985 ft | 139 kts | 230° |
| 2026-04-24 09:55 | 34.91710 | 33.67735 | 931 ft | 142 kts | 227° |
| 2026-04-24 09:55 | 34.91024 | 33.66866 | 776 ft | 142 kts | 223° |
| 2026-04-24 09:55 | 34.90325 | 33.66009 | 595 ft | 142 kts | 223° |
| 2026-04-24 09:56 | 34.89621 | 33.65146 | 421 ft | 144 kts | 222° |
| 2026-04-24 09:56 | 34.88917 | 33.64277 | 248 ft | 143 kts | 223° |
| 2026-04-24 09:56 | 34.88248 | 33.63421 | 56 ft | 133 kts | 220° |
| 2026-04-24 09:56 | 34.87635 | 33.62732 | 21 ft | 106 kts | 223° |
| 2026-04-24 09:57 | 34.87286 | 33.62292 | 20 ft | 51 kts | 227° |
| 2026-04-24 09:57 | 34.87071 | 33.62026 | 22 ft | 43 kts | 229° |
| 2026-04-24 09:57 | 34.86949 | 33.61717 | 20 ft | 36 kts | 253° |
| 2026-04-24 09:57 | 34.86898 | 33.61440 | 20 ft | 33 kts | 264° |
| 2026-04-24 09:58 | 34.86861 | 33.61261 | 20 ft | 21 kts | 227° |
| 2026-04-24 09:58 | 34.86761 | 33.61140 | 20 ft | 20 kts | 225° |
| 2026-04-24 09:58 | 34.86701 | 33.61013 | 20 ft | 17 kts | 291° |
| 2026-04-24 09:58 | 34.86777 | 33.60935 | 19 ft | 13 kts | 18° |
| 2026-04-24 09:59 | 34.86833 | 33.60994 | 19 ft | 0 kts | 46° |